createdAt,value
2023-08-11T00:07:02.549Z,22.2
2023-08-11T00:17:02.924Z,21.9
2023-08-11T00:27:02.548Z,21.8
2023-08-11T00:37:02.523Z,21.7
2023-08-11T00:47:02.870Z,21.6
2023-08-11T00:57:02.469Z,21.4
2023-08-11T01:07:02.465Z,21.2
2023-08-11T01:17:02.400Z,21.1
2023-08-11T01:27:02.422Z,20.9
2023-08-11T01:37:02.358Z,20.7
2023-08-11T01:47:02.325Z,20.6
2023-08-11T01:57:02.382Z,20.5
2023-08-11T02:07:02.322Z,20.4
2023-08-11T02:17:02.300Z,20.3
2023-08-11T02:27:02.309Z,20.2
2023-08-11T02:37:02.298Z,20.2
2023-08-11T02:47:02.225Z,20.1
2023-08-11T02:57:02.244Z,20
2023-08-11T03:07:02.660Z,19.8
2023-08-11T03:17:02.169Z,19.7
2023-08-11T03:27:02.206Z,19.5
2023-08-11T03:37:02.206Z,19.3
2023-08-11T03:47:02.172Z,19.2
2023-08-11T03:57:02.164Z,19
2023-08-11T04:07:02.543Z,18.9
2023-08-11T04:17:02.148Z,18.9
2023-08-11T04:27:02.532Z,18.8
2023-08-11T04:37:03.990Z,18.8
2023-08-11T04:47:02.046Z,18.6
2023-08-11T04:57:02.047Z,18.5
2023-08-11T05:07:01.999Z,18.6
2023-08-11T05:17:04.096Z,19.5
2023-08-11T05:27:01.979Z,20.9
2023-08-11T05:37:01.961Z,22
2023-08-11T05:47:01.925Z,21.7
2023-08-11T05:57:01.919Z,21.4
2023-08-11T06:07:01.902Z,21.3
2023-08-11T06:17:01.839Z,21.3
2023-08-11T06:27:02.329Z,21.3
2023-08-11T06:37:01.888Z,21.4
2023-08-11T06:47:01.823Z,22.3
2023-08-11T06:57:02.281Z,24.3
2023-08-11T07:07:01.846Z,25.2
2023-08-11T07:17:01.784Z,25.8
2023-08-11T07:27:02.187Z,26.2
2023-08-11T07:37:01.758Z,26.9
2023-08-11T07:47:02.132Z,28.2
2023-08-11T07:57:01.726Z,29.3
2023-08-11T08:07:01.693Z,29.6
2023-08-11T08:17:01.661Z,29.9
2023-08-11T08:27:01.641Z,30.8
2023-08-11T08:37:01.754Z,31.6
2023-08-11T08:47:01.574Z,32.7
2023-08-11T08:57:01.613Z,34.1
2023-08-11T09:07:01.994Z,35
2023-08-11T09:17:03.609Z,34.7
2023-08-11T09:27:01.556Z,35.7
2023-08-11T09:37:01.534Z,37.8
2023-08-11T09:47:14.875Z,39
2023-08-11T09:57:03.432Z,39.2
2023-08-11T10:07:01.494Z,40.5
2023-08-11T10:17:01.461Z,41
2023-08-11T10:27:01.585Z,39.4
2023-08-11T10:37:01.858Z,38.8
2023-08-11T10:47:01.546Z,38.6
2023-08-11T10:57:01.522Z,40.2
2023-08-11T11:07:01.438Z,39.8
2023-08-11T11:17:01.883Z,39.7
2023-08-11T11:27:01.413Z,40.6
2023-08-11T11:37:01.388Z,40.1
2023-08-11T11:47:01.339Z,41.7
2023-08-11T11:57:04.754Z,41.7
2023-08-11T12:07:03.284Z,40.8
2023-08-11T12:17:01.305Z,40.4
2023-08-11T12:27:01.310Z,40.4
2023-08-11T12:37:01.730Z,39.7
2023-08-11T12:47:01.235Z,37.7
2023-08-11T12:57:01.295Z,36.1
2023-08-11T13:07:01.286Z,35.4
2023-08-11T13:17:01.198Z,34.3
2023-08-11T13:27:01.209Z,32.9
2023-08-11T13:37:01.646Z,32.3
2023-08-11T13:47:01.170Z,32.1
2023-08-11T13:57:01.175Z,31.9
2023-08-11T14:07:18.355Z,31.8
2023-08-11T14:17:01.131Z,31.9
2023-08-11T14:27:01.143Z,32.5
2023-08-11T14:37:01.090Z,33.4
2023-08-11T14:47:01.118Z,33.7
2023-08-11T14:57:01.084Z,34
2023-08-11T15:07:01.216Z,34
2023-08-11T15:17:01.175Z,34
2023-08-11T15:27:01.463Z,33.9
2023-08-11T15:37:01.011Z,34
2023-08-11T15:47:01.357Z,33.9
2023-08-11T15:57:00.984Z,34
2023-08-11T16:07:00.954Z,33.8
2023-08-11T16:17:00.873Z,33.9
2023-08-11T16:27:00.912Z,33.6
2023-08-11T16:37:01.326Z,33.6
2023-08-11T16:47:00.856Z,33.4
2023-08-11T16:57:00.873Z,33.5
2023-08-11T17:07:00.822Z,33.5
2023-08-11T17:17:00.849Z,33.4
2023-08-11T17:27:00.811Z,33.3
2023-08-11T17:37:00.803Z,33
2023-08-11T17:47:00.810Z,32.9
2023-08-11T17:57:00.753Z,32.7
2023-08-11T18:07:00.731Z,32.4
2023-08-11T18:17:00.740Z,31.8
2023-08-11T18:37:01.147Z,31.2
2023-08-11T18:47:00.642Z,31.1
2023-08-11T18:57:00.673Z,30.9
2023-08-11T19:07:00.646Z,30.6
2023-08-11T19:17:00.596Z,30.2
2023-08-11T19:27:00.573Z,29.8
2023-08-11T19:37:00.550Z,29.4
2023-08-11T19:47:00.532Z,29
2023-08-11T19:57:00.558Z,28.6
2023-08-11T20:07:00.526Z,28.3
2023-08-11T20:17:00.475Z,28.1
2023-08-11T20:27:00.475Z,27.7
2023-08-11T20:37:00.429Z,27.3
2023-08-11T20:47:00.403Z,27.1
2023-08-11T21:07:00.401Z,26.6
2023-08-11T21:17:03.259Z,26.4
2023-08-11T21:27:00.447Z,26.3
2023-08-11T21:37:00.378Z,26.1
2023-08-11T21:47:00.285Z,25.8
2023-08-11T21:57:00.756Z,25.7
2023-08-11T22:07:00.311Z,25.6
2023-08-11T22:17:00.261Z,25.4
2023-08-11T22:27:00.647Z,25.4
2023-08-11T22:37:00.273Z,25.4
2023-08-11T22:47:00.199Z,25.4
2023-08-11T22:57:00.216Z,25.2
2023-08-11T23:07:00.204Z,25.1
2023-08-11T23:17:00.125Z,25.2
2023-08-11T23:27:00.174Z,25.4
2023-08-11T23:37:00.129Z,25.3
2023-08-11T23:47:00.068Z,25.2
2023-08-11T23:57:00.077Z,25
